Time;durP1;ratioP1;P1;durP2;ratioP2;P2;SDS_P1;SDS_P2;PMS_P1;PMS_P2;Temp;Humidity;BMP_temperature;BMP_pressure;BME280_temperature;BME280_humidity;BME280_pressure;Samples;Min_cycle;Max_cycle;Signal;HPM_P1;HPM_P2
2021/07/17 00:02:22;;;;;;;58.30;3.00;;;17.50;99.90;;;;;;5052703;28;20955;-73
2021/07/17 00:04:49;;;;;;;58.40;3.43;;;17.50;99.90;;;;;;5052903;28;20475;-74
2021/07/17 00:07:17;;;;;;;58.47;3.20;;;17.50;99.90;;;;;;5053256;28;20538;-73
2021/07/17 00:09:43;;;;;;;58.10;2.80;;;17.40;99.90;;;;;;5052787;28;20576;-73
2021/07/17 00:12:11;;;;;;;58.20;2.77;;;17.40;99.90;;;;;;5052873;28;20526;-73
2021/07/17 00:14:37;;;;;;;58.80;3.93;;;17.40;99.90;;;;;;5052881;28;20464;-73
2021/07/17 00:17:06;;;;;;;58.70;3.63;;;17.40;99.90;;;;;;5052974;28;20692;-73
2021/07/17 00:19:33;;;;;;;58.60;2.87;;;17.30;99.90;;;;;;5052788;28;20450;-73
2021/07/17 00:22:00;;;;;;;58.70;3.93;;;17.30;99.90;;;;;;5052476;28;20448;-73
2021/07/17 00:24:26;;;;;;;58.97;3.70;;;17.30;99.90;;;;;;5052843;28;20566;-74
2021/07/17 00:26:53;;;;;;;58.57;3.37;;;17.30;99.90;;;;;;5052632;28;20939;-73
2021/07/17 00:29:20;;;;;;;57.93;3.00;;;17.30;99.90;;;;;;5052640;28;20578;-73
2021/07/17 00:31:47;;;;;;;58.47;3.27;;;17.20;99.90;;;;;;5052388;28;20458;-71
2021/07/17 00:34:16;;;;;;;58.10;3.07;;;17.20;99.90;;;;;;5052378;28;21029;-73
2021/07/17 00:36:43;;;;;;;58.07;3.30;;;17.20;99.90;;;;;;5052361;28;20444;-73
2021/07/17 00:39:10;;;;;;;58.57;3.40;;;17.10;99.90;;;;;;5052694;28;20447;-73
2021/07/17 00:41:37;;;;;;;58.20;3.10;;;17.10;99.90;;;;;;5052153;28;20971;-74
2021/07/17 00:44:04;;;;;;;58.20;3.03;;;17.10;99.90;;;;;;5052436;28;21046;-74
2021/07/17 00:46:33;;;;;;;58.13;2.90;;;17.10;99.90;;;;;;5052346;28;20474;-73
2021/07/17 00:49:00;;;;;;;58.50;3.23;;;17.10;99.90;;;;;;5052128;28;20484;-73
2021/07/17 00:51:28;;;;;;;59.37;3.53;;;17.10;99.90;;;;;;5052009;28;20479;-73
2021/07/17 00:53:55;;;;;;;58.67;3.23;;;17.00;99.90;;;;;;5052193;28;20537;-73
2021/07/17 00:56:23;;;;;;;57.93;2.70;;;17.00;99.90;;;;;;5052225;28;20451;-74
2021/07/17 00:58:58;;;;;;;58.00;2.90;;;17.00;99.90;;;;;;5052282;28;20454;-73
2021/07/17 01:01:26;;;;;;;58.73;3.50;;;17.00;99.90;;;;;;5051952;28;20469;-73
2021/07/17 01:03:53;;;;;;;58.70;3.70;;;16.90;99.90;;;;;;5052307;28;20515;-73
2021/07/17 01:06:21;;;;;;;58.60;3.00;;;17.00;99.90;;;;;;5052101;28;21026;-73
2021/07/17 01:08:49;;;;;;;58.80;3.00;;;17.00;99.90;;;;;;5051927;28;20492;-73
2021/07/17 01:11:16;;;;;;;59.13;4.03;;;17.00;99.90;;;;;;5051949;28;20547;-73
2021/07/17 01:13:43;;;;;;;58.40;2.80;;;17.00;99.90;;;;;;5051657;28;20542;-74
2021/07/17 01:16:10;;;;;;;58.80;3.43;;;17.10;99.90;;;;;;5051517;28;20451;-74
2021/07/17 01:18:37;;;;;;;58.50;3.03;;;17.10;99.90;;;;;;5051767;28;20535;-73
2021/07/17 01:21:04;;;;;;;58.27;2.97;;;17.10;99.90;;;;;;5051857;28;20540;-73
2021/07/17 01:23:32;;;;;;;58.80;3.67;;;17.10;99.90;;;;;;5051445;28;20448;-73
2021/07/17 01:25:59;;;;;;;58.07;3.00;;;17.10;99.90;;;;;;5051718;28;20967;-74
2021/07/17 01:28:26;;;;;;;57.87;2.40;;;17.10;99.90;;;;;;5051843;28;20566;-74
2021/07/17 01:30:53;;;;;;;59.37;3.20;;;17.10;99.90;;;;;;5051482;28;20450;-74
2021/07/17 01:33:20;;;;;;;58.50;3.03;;;17.10;99.90;;;;;;5051512;28;20644;-74
2021/07/17 01:35:48;;;;;;;58.07;3.30;;;17.10;99.90;;;;;;5051759;28;20468;-73
2021/07/17 01:38:15;;;;;;;59.43;3.83;;;17.00;99.90;;;;;;5051652;28;20459;-73
2021/07/17 01:40:47;;;;;;;59.93;3.30;;;17.00;99.90;;;;;;5051636;28;20451;-73
2021/07/17 01:43:14;;;;;;;58.70;2.70;;;17.00;99.90;;;;;;5051241;28;20546;-72
2021/07/17 01:45:42;;;;;;;59.00;3.97;;;17.00;99.90;;;;;;5051238;28;20979;-73
2021/07/17 01:48:10;;;;;;;58.50;3.47;;;17.10;99.90;;;;;;5051593;28;20546;-73
2021/07/17 01:50:39;;;;;;;58.27;3.10;;;17.00;99.90;;;;;;5051421;28;20538;-74
2021/07/17 01:53:07;;;;;;;58.20;3.17;;;17.10;99.90;;;;;;5051202;28;20460;-73
2021/07/17 01:55:34;;;;;;;58.10;2.90;;;17.10;99.90;;;;;;5051479;28;20562;-74
2021/07/17 01:58:03;;;;;;;59.90;5.20;;;17.10;99.90;;;;;;5051348;28;20461;-74
2021/07/17 02:00:30;;;;;;;58.20;2.70;;;17.10;99.90;;;;;;5051608;28;20447;-74
2021/07/17 02:02:58;;;;;;;58.13;3.17;;;17.10;99.90;;;;;;5051240;28;20556;-73
2021/07/17 02:05:25;;;;;;;58.17;2.93;;;17.10;99.90;;;;;;5051392;28;20476;-73
2021/07/17 02:07:52;;;;;;;59.17;3.90;;;17.10;99.90;;;;;;5051548;28;20493;-74
2021/07/17 02:10:21;;;;;;;58.23;3.30;;;17.10;99.90;;;;;;5051230;28;20522;-73
2021/07/17 02:12:58;;;;;;;58.20;2.70;;;17.10;99.90;;;;;;5051008;28;20958;-73
2021/07/17 02:15:27;;;;;;;57.67;2.70;;;17.10;99.90;;;;;;5051170;28;20752;-73
2021/07/17 02:17:55;;;;;;;58.10;2.80;;;17.10;99.90;;;;;;5051379;28;20455;-74
2021/07/17 02:20:22;;;;;;;58.07;3.00;;;17.20;99.90;;;;;;5051167;28;20539;-73
2021/07/17 02:22:50;;;;;;;58.17;3.10;;;17.20;99.90;;;;;;5050905;28;20455;-73
2021/07/17 02:25:17;;;;;;;58.30;2.70;;;17.20;99.90;;;;;;5051304;28;20561;-73
2021/07/17 02:27:44;;;;;;;58.33;4.53;;;17.20;99.90;;;;;;5053800;28;20489;-73
2021/07/17 02:30:12;;;;;;;58.07;2.63;;;17.20;99.90;;;;;;5055089;28;20487;-73
2021/07/17 02:32:40;;;;;;;58.83;3.20;;;17.20;99.90;;;;;;5054650;28;20451;-73
2021/07/17 02:35:08;;;;;;;59.57;4.10;;;17.20;99.90;;;;;;5054644;28;20503;-73
2021/07/17 02:37:35;;;;;;;58.50;2.70;;;17.20;99.90;;;;;;5054620;28;20541;-73
2021/07/17 02:40:02;;;;;;;58.13;3.27;;;17.20;99.90;;;;;;5054952;28;20884;-73
2021/07/17 02:42:28;;;;;;;59.37;4.17;;;17.20;99.90;;;;;;5054559;28;20532;-73
2021/07/17 02:44:55;;;;;;;57.93;2.40;;;17.20;99.90;;;;;;5054677;28;20467;-73
2021/07/17 02:47:22;;;;;;;58.77;4.20;;;17.20;99.90;;;;;;5054605;28;20987;-73
2021/07/17 02:49:50;;;;;;;58.13;3.10;;;17.20;99.90;;;;;;5054310;28;20485;-73
2021/07/17 02:52:17;;;;;;;58.40;2.80;;;17.20;99.90;;;;;;5054488;28;20534;-73
2021/07/17 02:54:44;;;;;;;58.00;2.87;;;17.20;99.90;;;;;;5054595;28;20473;-73
2021/07/17 02:57:11;;;;;;;59.13;3.07;;;17.20;99.90;;;;;;5054370;28;20543;-73
2021/07/17 02:59:38;;;;;;;58.03;3.00;;;17.10;99.90;;;;;;5054458;28;20447;-73
2021/07/17 03:02:05;;;;;;;58.20;2.80;;;17.10;99.90;;;;;;5054155;28;20553;-73
2021/07/17 03:04:32;;;;;;;58.13;2.70;;;17.10;99.90;;;;;;5053995;28;20562;-73
2021/07/17 03:07:00;;;;;;;58.20;3.07;;;17.10;99.90;;;;;;5054462;28;20494;-73
2021/07/17 03:09:27;;;;;;;58.53;3.27;;;17.10;99.90;;;;;;5054187;28;20577;-73
2021/07/17 03:11:53;;;;;;;57.70;3.07;;;17.10;99.90;;;;;;5053825;28;20998;-73
2021/07/17 03:14:20;;;;;;;58.57;3.50;;;17.10;99.90;;;;;;5054113;28;20550;-73
2021/07/17 03:16:47;;;;;;;58.90;3.87;;;17.10;99.90;;;;;;5054022;28;20451;-73
2021/07/17 03:19:14;;;;;;;58.60;3.33;;;17.00;99.90;;;;;;5053873;28;20531;-73
2021/07/17 03:21:41;;;;;;;59.80;3.30;;;17.00;99.90;;;;;;5053898;28;20458;-73
2021/07/17 03:24:09;;;;;;;58.30;3.00;;;17.00;99.90;;;;;;5054001;28;20471;-73
2021/07/17 03:26:36;;;;;;;58.07;2.70;;;17.00;99.90;;;;;;5053890;28;20459;-73
2021/07/17 03:29:03;;;;;;;58.93;4.40;;;17.00;99.90;;;;;;5053823;28;20569;-73
2021/07/17 03:31:31;;;;;;;57.73;2.90;;;17.00;99.90;;;;;;5053425;28;20450;-73
2021/07/17 03:33:59;;;;;;;59.60;5.23;;;17.00;99.90;;;;;;5053790;28;20473;-73
2021/07/17 03:36:26;;;;;;;57.73;2.40;;;16.90;99.90;;;;;;5053657;28;20451;-73
2021/07/17 03:38:53;;;;;;;58.30;3.50;;;16.90;99.90;;;;;;5053039;28;20541;-73
2021/07/17 03:41:22;;;;;;;57.97;2.50;;;16.90;99.90;;;;;;5053526;28;20460;-73
2021/07/17 03:43:49;;;;;;;58.87;4.23;;;16.90;99.90;;;;;;5053170;28;20544;-73
2021/07/17 03:46:16;;;;;;;57.97;2.77;;;16.90;99.90;;;;;;5053478;28;20534;-73
2021/07/17 03:48:43;;;;;;;59.73;4.40;;;16.90;99.90;;;;;;5053903;28;20545;-73
2021/07/17 03:51:10;;;;;;;58.60;3.77;;;16.90;99.90;;;;;;5053119;28;20884;-73
2021/07/17 03:53:37;;;;;;;58.07;2.80;;;16.90;99.90;;;;;;5053296;28;20901;-73
2021/07/17 03:56:04;;;;;;;58.03;2.73;;;16.90;99.90;;;;;;5053417;28;20451;-73
2021/07/17 03:58:32;;;;;;;58.90;3.57;;;16.90;99.90;;;;;;5053239;28;20458;-73
2021/07/17 04:00:59;;;;;;;59.17;3.20;;;16.90;99.90;;;;;;5053119;28;20485;-73
2021/07/17 04:03:26;;;;;;;58.17;2.90;;;16.90;99.90;;;;;;5052798;28;20503;-73
2021/07/17 04:05:53;;;;;;;58.67;3.97;;;16.90;99.90;;;;;;5053096;28;20509;-73
2021/07/17 04:08:20;;;;;;;58.30;2.80;;;16.90;99.90;;;;;;5053210;28;20530;-73
2021/07/17 04:10:47;;;;;;;58.20;2.80;;;16.90;99.90;;;;;;5052967;28;20581;-73
2021/07/17 04:13:14;;;;;;;58.27;3.10;;;16.90;99.90;;;;;;5052644;28;20940;-73
2021/07/17 04:15:42;;;;;;;59.33;3.83;;;16.90;99.90;;;;;;5053087;28;20529;-73
2021/07/17 04:18:09;;;;;;;58.27;3.07;;;17.00;99.90;;;;;;5052997;28;20446;-72
2021/07/17 04:20:36;;;;;;;58.20;3.43;;;17.00;99.90;;;;;;5053119;28;20535;-73
2021/07/17 04:23:02;;;;;;;57.73;2.60;;;16.90;99.90;;;;;;5052628;28;20872;-73
2021/07/17 04:25:29;;;;;;;58.23;2.80;;;16.90;99.90;;;;;;5052707;28;20482;-73
2021/07/17 04:27:56;;;;;;;58.47;4.00;;;16.90;99.90;;;;;;5052587;28;20535;-72
2021/07/17 04:30:23;;;;;;;58.07;2.83;;;16.90;99.90;;;;;;5052833;28;20545;-73
2021/07/17 04:32:51;;;;;;;58.10;2.77;;;16.90;99.90;;;;;;5052582;28;20457;-72
2021/07/17 04:35:18;;;;;;;58.50;4.10;;;16.90;99.90;;;;;;5052653;28;20471;-72
2021/07/17 04:37:48;;;;;;;58.00;2.70;;;16.90;99.90;;;;;;5052508;28;20546;-72
2021/07/17 04:40:16;;;;;;;58.70;3.67;;;17.00;99.90;;;;;;5052475;28;20448;-73
2021/07/17 04:42:42;;;;;;;58.23;2.67;;;17.00;99.90;;;;;;5052082;28;20491;-73
2021/07/17 04:45:10;;;;;;;58.03;2.70;;;17.00;99.90;;;;;;5052643;28;20472;-72
2021/07/17 04:47:37;;;;;;;58.43;3.30;;;17.10;99.90;;;;;;5052456;28;20880;-72
2021/07/17 04:50:07;;;;;;;58.10;2.70;;;17.10;99.90;;;;;;5052277;28;20578;-73
2021/07/17 04:52:34;;;;;;;58.00;2.80;;;17.10;99.90;;;;;;5052011;28;20489;-73
2021/07/17 04:55:01;;;;;;;58.27;2.90;;;17.10;99.90;;;;;;5052098;28;20467;-73
2021/07/17 04:57:27;;;;;;;58.37;2.90;;;17.10;99.90;;;;;;5052330;28;20947;-72
2021/07/17 04:59:54;;;;;;;58.03;2.60;;;17.10;99.90;;;;;;5052271;28;20882;-72
2021/07/17 05:02:21;;;;;;;58.07;2.77;;;17.10;99.90;;;;;;5051683;28;20545;-72
2021/07/17 05:04:48;;;;;;;57.97;2.50;;;17.10;99.90;;;;;;5052060;28;20495;-73
2021/07/17 05:07:16;;;;;;;58.27;3.20;;;17.10;99.90;;;;;;5052042;28;20476;-72
2021/07/17 05:09:43;;;;;;;57.90;2.57;;;17.20;99.90;;;;;;5052139;28;20578;-72
2021/07/17 05:12:10;;;;;;;57.97;2.90;;;17.20;99.90;;;;;;5051867;28;20622;-73
2021/07/17 05:14:37;;;;;;;58.10;2.50;;;17.20;99.90;;;;;;5051985;28;20865;-72
2021/07/17 05:17:04;;;;;;;59.27;5.17;;;17.30;99.90;;;;;;5051967;28;20470;-72
2021/07/17 05:19:31;;;;;;;59.27;4.40;;;17.30;99.90;;;;;;5051875;28;20534;-73
2021/07/17 05:21:58;;;;;;;57.97;2.97;;;17.30;99.90;;;;;;5051448;28;20545;-72
2021/07/17 05:24:26;;;;;;;58.60;2.70;;;17.40;99.90;;;;;;5051902;28;20501;-72
2021/07/17 05:26:53;;;;;;;58.70;3.10;;;17.40;99.90;;;;;;5051967;28;20490;-72
2021/07/17 05:29:19;;;;;;;58.20;3.10;;;17.40;99.90;;;;;;5051951;28;20455;-72
2021/07/17 05:31:46;;;;;;;58.37;3.20;;;17.40;99.90;;;;;;5051498;28;20444;-72
2021/07/17 05:34:13;;;;;;;58.40;3.43;;;17.40;99.90;;;;;;5051525;28;20513;-72
2021/07/17 05:36:40;;;;;;;58.87;4.97;;;17.40;99.90;;;;;;5051511;28;20455;-72
2021/07/17 05:39:07;;;;;;;58.73;3.47;;;17.50;99.90;;;;;;5051821;28;20537;-72
2021/07/17 05:41:35;;;;;;;58.70;3.17;;;17.50;99.90;;;;;;5051466;28;20539;-72
2021/07/17 05:44:02;;;;;;;58.30;3.43;;;17.40;99.90;;;;;;5051356;28;20474;-72
2021/07/17 05:46:29;;;;;;;58.30;3.43;;;17.40;99.90;;;;;;5051636;28;20880;-73
2021/07/17 05:48:56;;;;;;;57.80;3.13;;;17.50;99.90;;;;;;5051784;28;20542;-73
2021/07/17 05:51:24;;;;;;;57.97;2.80;;;17.50;99.90;;;;;;5051194;28;20574;-72
2021/07/17 05:53:51;;;;;;;58.17;2.70;;;17.50;99.90;;;;;;5051373;28;20444;-72
2021/07/17 05:56:17;;;;;;;57.57;2.30;;;17.50;99.90;;;;;;5051557;28;20458;-72
2021/07/17 05:58:46;;;;;;;57.87;2.60;;;17.50;99.90;;;;;;5051833;28;20487;-72
2021/07/17 06:01:12;;;;;;;58.20;2.87;;;17.60;99.90;;;;;;5051326;28;20444;-73
2021/07/17 06:03:41;;;;;;;59.17;3.87;;;17.60;99.90;;;;;;5055104;28;20900;-72
2021/07/17 06:06:09;;;;;;;58.27;2.63;;;17.60;99.90;;;;;;5055292;28;20940;-72
2021/07/17 06:08:36;;;;;;;58.70;3.07;;;17.70;99.90;;;;;;5055622;28;20451;-72
2021/07/17 06:11:03;;;;;;;57.97;3.00;;;17.70;99.90;;;;;;5055235;28;20855;-72
2021/07/17 06:13:30;;;;;;;58.07;3.20;;;17.70;99.90;;;;;;5055325;28;20865;-72
2021/07/17 06:15:58;;;;;;;58.30;3.40;;;17.80;99.90;;;;;;5055117;28;20554;-73
2021/07/17 06:18:25;;;;;;;57.70;2.70;;;17.80;99.90;;;;;;5055000;28;20451;-72
2021/07/17 06:20:51;;;;;;;58.07;2.70;;;17.80;99.90;;;;;;5055094;28;20454;-72
2021/07/17 06:23:18;;;;;;;58.70;3.97;;;17.80;99.90;;;;;;5054822;28;20538;-73
2021/07/17 06:25:45;;;;;;;60.37;4.40;;;17.80;99.90;;;;;;5055102;28;20554;-72
2021/07/17 06:28:12;;;;;;;58.27;2.90;;;17.90;99.90;;;;;;5055022;28;20543;-72
2021/07/17 06:30:39;;;;;;;58.40;3.10;;;17.90;99.90;;;;;;5054857;28;20480;-73
2021/07/17 06:33:07;;;;;;;57.73;2.60;;;18.00;99.90;;;;;;5054606;28;20454;-73
2021/07/17 06:35:34;;;;;;;57.37;2.70;;;18.00;99.90;;;;;;5054780;28;20558;-72
2021/07/17 06:38:01;;;;;;;59.17;3.97;;;18.00;99.90;;;;;;5054947;28;20448;-72
2021/07/17 06:40:28;;;;;;;57.80;2.60;;;18.00;99.90;;;;;;5054743;28;20533;-73
2021/07/17 06:42:54;;;;;;;58.27;3.00;;;18.00;99.90;;;;;;5054981;28;20452;-73
2021/07/17 06:45:22;;;;;;;58.20;3.37;;;18.00;99.00;;;;;;5054421;28;20477;-73
2021/07/17 06:47:50;;;;;;;57.67;2.70;;;18.00;98.30;;;;;;5054652;28;20865;-73
2021/07/17 06:50:20;;;;;;;58.10;2.80;;;18.00;97.60;;;;;;5054583;28;21011;-72
2021/07/17 06:52:47;;;;;;;59.27;3.40;;;18.00;97.60;;;;;;5054702;28;20633;-72
2021/07/17 06:55:14;;;;;;;58.60;4.30;;;18.10;97.30;;;;;;5054467;28;20835;-73
2021/07/17 06:57:42;;;;;;;58.57;3.80;;;18.10;96.40;;;;;;5054471;28;20448;-73
2021/07/17 07:00:11;;;;;;;58.30;2.67;;;18.20;95.60;;;;;;5054395;28;20539;-72
2021/07/17 07:02:38;;;;;;;58.20;2.93;;;18.30;95.20;;;;;;5054429;28;20876;-73
2021/07/17 07:05:07;;;;;;;58.27;2.77;;;18.40;95.30;;;;;;5054399;28;20559;-73
2021/07/17 07:07:35;;;;;;;58.70;3.40;;;18.40;95.30;;;;;;5054326;28;20456;-73
2021/07/17 07:10:05;;;;;;;58.40;3.53;;;18.50;95.20;;;;;;5054220;28;20481;-73
2021/07/17 07:12:32;;;;;;;59.47;3.73;;;18.50;94.20;;;;;;5053566;28;20542;-72
2021/07/17 07:14:58;;;;;;;58.60;3.60;;;18.50;93.70;;;;;;5053321;28;20922;-73
2021/07/17 07:17:25;;;;;;;57.97;2.80;;;18.50;93.40;;;;;;5053885;28;20539;-72
2021/07/17 07:19:52;;;;;;;58.30;3.27;;;18.50;92.00;;;;;;5054095;28;20539;-73
2021/07/17 07:22:19;;;;;;;58.60;3.70;;;18.50;90.30;;;;;;5053794;28;20543;-73
2021/07/17 07:24:47;;;;;;;57.97;2.97;;;18.50;90.00;;;;;;5053870;28;20562;-72
2021/07/17 07:27:14;;;;;;;58.10;2.70;;;18.50;89.30;;;;;;5053861;28;20484;-72
2021/07/17 07:29:41;;;;;;;58.10;2.80;;;18.60;88.00;;;;;;5054125;28;20471;-73
2021/07/17 07:32:07;;;;;;;58.27;2.87;;;18.60;88.30;;;;;;5053677;28;20475;-73
2021/07/17 07:34:34;;;;;;;58.17;2.80;;;18.60;88.20;;;;;;5053839;28;20844;-73
2021/07/17 07:37:01;;;;;;;58.80;3.80;;;18.60;88.60;;;;;;5053659;28;20484;-73
2021/07/17 07:39:28;;;;;;;58.40;3.20;;;18.60;89.30;;;;;;5053643;28;20831;-72
2021/07/17 07:41:56;;;;;;;59.00;4.33;;;18.60;89.50;;;;;;5053574;28;20451;-72
2021/07/17 07:44:23;;;;;;;58.70;2.90;;;18.60;88.40;;;;;;5053374;28;21020;-72
2021/07/17 07:46:50;;;;;;;58.10;2.70;;;18.60;88.90;;;;;;5053546;28;20493;-72
2021/07/17 07:49:17;;;;;;;58.70;4.30;;;18.50;88.40;;;;;;5053493;28;20531;-73
2021/07/17 07:51:44;;;;;;;58.40;2.93;;;18.50;88.80;;;;;;5053104;28;20515;-72
2021/07/17 07:54:11;;;;;;;58.20;3.00;;;18.50;88.00;;;;;;5053293;28;20470;-73
2021/07/17 07:56:38;;;;;;;58.30;3.30;;;18.50;88.10;;;;;;5053540;28;20498;-73
2021/07/17 07:59:06;;;;;;;58.70;4.00;;;18.40;88.70;;;;;;5053427;28;20482;-73
2021/07/17 08:01:33;;;;;;;58.40;3.20;;;18.40;89.10;;;;;;5053125;28;20885;-73
2021/07/17 08:04:00;;;;;;;58.50;3.20;;;18.40;89.40;;;;;;5052876;28;21052;-73
2021/07/17 08:06:27;;;;;;;57.87;3.03;;;18.40;89.50;;;;;;5053396;28;20459;-73
2021/07/17 08:08:54;;;;;;;58.30;3.20;;;18.40;89.80;;;;;;5053096;28;20454;-73
2021/07/17 08:11:20;;;;;;;58.07;2.70;;;18.40;89.80;;;;;;5053104;28;20567;-73
2021/07/17 08:13:47;;;;;;;57.97;2.60;;;18.40;90.00;;;;;;5053032;28;20448;-73
2021/07/17 08:16:15;;;;;;;58.70;3.80;;;18.50;91.00;;;;;;5053086;28;20539;-73
2021/07/17 08:18:42;;;;;;;58.40;3.23;;;18.70;92.20;;;;;;5053056;28;20864;-73
2021/07/17 08:21:09;;;;;;;58.10;2.70;;;18.80;90.90;;;;;;5052720;28;20534;-73
2021/07/17 08:23:36;;;;;;;58.60;3.40;;;18.90;91.00;;;;;;5052787;28;20887;-73
2021/07/17 08:26:03;;;;;;;60.40;4.30;;;19.10;91.00;;;;;;5052735;28;20454;-73
2021/07/17 08:28:30;;;;;;;59.33;3.80;;;19.20;90.90;;;;;;5052661;28;20459;-73
2021/07/17 08:30:56;;;;;;;58.67;3.63;;;19.40;91.20;;;;;;5053090;28;20563;-73
2021/07/17 08:33:25;;;;;;;61.20;4.93;;;19.50;91.20;;;;;;5052502;28;20477;-73
2021/07/17 08:35:51;;;;;;;58.60;3.10;;;19.60;86.80;;;;;;5052510;28;20506;-73
2021/07/17 08:38:18;;;;;;;57.97;2.50;;;19.60;81.80;;;;;;5052813;28;20540;-73
2021/07/17 08:40:51;;;;;;;58.60;4.43;;;19.60;61.60;;;;;;5052812;28;20892;-73
2021/07/17 08:43:18;;;;;;;59.00;3.37;;;19.60;55.80;;;;;;5052659;28;20455;-73
2021/07/17 08:45:45;;;;;;;59.17;4.17;;;19.50;29.00;;;;;;5052480;28;20506;-73
2021/07/17 08:48:12;;;;;;;58.20;3.00;;;19.50;25.60;;;;;;5052318;28;20538;-73
2021/07/17 08:50:41;;;;;;;57.90;2.87;;;19.50;4.10;;;;;;5052556;28;20485;-73
2021/07/17 08:53:08;;;;;;;58.33;3.30;;;19.60;3.20;;;;;;5052227;28;20449;-73
2021/07/17 08:55:36;;;;;;;58.67;3.50;;;19.80;1.00;;;;;;5052373;28;20557;-73
2021/07/17 08:58:03;;;;;;;59.03;3.87;;;20.00;1.00;;;;;;5052307;28;20533;-73
2021/07/17 09:00:32;;;;;;;58.77;4.17;;;20.20;1.00;;;;;;5052480;28;20473;-73
2021/07/17 09:03:01;;;;;;;60.30;3.80;;;20.50;1.00;;;;;;5051640;28;20474;-73
2021/07/17 09:05:30;;;;;;;58.70;3.00;;;20.70;1.00;;;;;;5052061;28;20497;-73
2021/07/17 09:07:59;;;;;;;58.83;3.77;;;20.90;1.00;;;;;;5052195;28;20494;-73
2021/07/17 09:10:34;;;;;;;58.93;3.17;;;21.00;1.00;;;;;;5051913;28;20448;-73
2021/07/17 09:13:17;;;;;;;57.97;2.60;;;21.20;1.00;;;;;;5051761;28;20533;-73
2021/07/17 09:15:54;;;;;;;58.60;3.57;;;21.20;1.00;;;;;;5052326;28;20468;-73
2021/07/17 09:18:44;;;;;;;59.73;4.63;;;21.20;1.00;;;;;;5052154;28;20542;-73
2021/07/17 09:21:13;;;;;;;58.63;3.37;;;21.20;1.00;;;;;;5051951;28;20539;-72
2021/07/17 09:23:44;;;;;;;58.50;2.87;;;21.00;1.00;;;;;;5051610;28;20448;-72
2021/07/17 09:26:17;;;;;;;58.10;3.20;;;20.80;1.00;;;;;;5052039;28;20451;-72
2021/07/17 09:28:54;;;;;;;58.70;3.57;;;20.60;1.00;;;;;;5052011;28;20455;-72
2021/07/17 09:31:21;;;;;;;60.80;4.23;;;20.30;1.00;;;;;;5051707;28;20486;-72
2021/07/17 09:33:50;;;;;;;59.10;3.17;;;20.10;1.00;;;;;;5051856;28;20447;-72
2021/07/17 09:36:18;;;;;;;57.57;2.60;;;19.80;1.00;;;;;;5050942;28;20939;-72
2021/07/17 09:38:52;;;;;;;58.80;3.37;;;19.70;1.00;;;;;;5051929;28;20455;-72
2021/07/17 09:41:20;;;;;;;58.20;3.47;;;19.60;1.00;;;;;;5051886;28;20442;-72
2021/07/17 09:43:59;;;;;;;58.07;2.87;;;19.50;1.00;;;;;;5051489;28;20965;-72
2021/07/17 09:46:27;;;;;;;58.07;2.70;;;19.50;1.00;;;;;;5051690;28;20472;-72
2021/07/17 09:48:56;;;;;;;57.93;2.70;;;19.50;1.00;;;;;;5051780;28;20449;-72
2021/07/17 09:51:25;;;;;;;58.80;3.70;;;19.40;1.00;;;;;;5051478;28;20492;-72
2021/07/17 09:53:55;;;;;;;58.80;2.70;;;19.40;1.00;;;;;;5051728;28;20453;-72
2021/07/17 09:56:24;;;;;;;59.17;3.93;;;19.50;1.00;;;;;;5051613;28;20450;-72
2021/07/17 09:58:53;;;;;;;58.77;3.60;;;19.60;1.00;;;;;;5051553;28;20455;-72
2021/07/17 10:01:29;;;;;;;58.37;3.20;;;19.80;1.00;;;;;;5051293;28;20854;-72
2021/07/17 10:04:03;;;;;;;59.17;3.00;;;20.10;1.70;;;;;;5051502;28;20572;-72
2021/07/17 10:06:36;;;;;;;58.90;3.10;;;20.40;1.00;;;;;;5051686;28;20455;-72
2021/07/17 10:09:07;;;;;;;58.73;3.80;;;20.60;1.00;;;;;;5051401;28;20879;-72
2021/07/17 10:11:34;;;;;;;58.37;3.00;;;20.70;1.00;;;;;;5050916;28;21035;-73
2021/07/17 10:14:16;;;;;;;60.43;4.50;;;20.70;1.00;;;;;;5051394;28;20468;-72
2021/07/17 10:16:44;;;;;;;58.80;3.37;;;20.80;1.00;;;;;;5051479;28;20526;-72
2021/07/17 10:19:15;;;;;;;60.00;3.93;;;20.80;1.00;;;;;;5051359;28;20453;-72
2021/07/17 10:21:42;;;;;;;57.87;2.90;;;20.90;1.00;;;;;;5050925;28;20444;-72
2021/07/17 10:24:11;;;;;;;58.47;3.10;;;21.00;1.00;;;;;;5067736;28;20558;-71
2021/07/17 10:26:39;;;;;;;58.20;2.77;;;21.20;1.00;;;;;;5071499;28;20444;-71
2021/07/17 10:29:09;;;;;;;58.10;2.90;;;21.40;1.00;;;;;;5071061;28;20443;-71
2021/07/17 10:31:36;;;;;;;58.20;3.13;;;21.70;1.00;;;;;;5070702;28;20574;-70
2021/07/17 10:34:04;;;;;;;59.20;3.70;;;21.80;1.00;;;;;;5071187;28;20473;-69
2021/07/17 10:36:33;;;;;;;58.60;3.60;;;22.00;1.00;;;;;;5071183;28;20539;-69
2021/07/17 10:39:02;;;;;;;59.80;3.17;;;22.30;1.00;;;;;;5071111;28;21029;-71
2021/07/17 10:41:33;;;;;;;58.20;3.10;;;22.50;1.00;;;;;;5070769;28;20482;-71
2021/07/17 10:44:00;;;;;;;59.27;3.20;;;22.90;1.00;;;;;;5070862;28;20473;-70
2021/07/17 10:46:32;;;;;;;58.80;3.60;;;23.00;1.00;;;;;;5071162;28;20446;-70
2021/07/17 10:49:01;;;;;;;58.20;3.00;;;22.90;1.00;;;;;;5073711;28;20461;-70
2021/07/17 10:51:32;;;;;;;58.40;2.87;;;22.90;1.00;;;;;;5074052;28;20573;-70
2021/07/17 10:54:00;;;;;;;58.97;2.90;;;22.70;1.00;;;;;;5074401;28;20470;-70
2021/07/17 10:56:45;;;;;;;60.10;3.33;;;22.60;1.00;;;;;;5074555;28;20447;-70
2021/07/17 10:59:46;;;;;;;58.20;3.00;;;22.40;1.00;;;;;;5074489;28;20480;-70
2021/07/17 11:02:22;;;;;;;59.10;3.60;;;22.10;1.00;;;;;;5040830;28;20892;-70
2021/07/17 11:04:52;;;;;;;59.40;3.80;;;21.90;1.00;;;;;;5074211;28;20558;-69
2021/07/17 11:07:42;;;;;;;58.10;2.90;;;21.70;1.00;;;;;;5074307;28;20639;-70
2021/07/17 11:10:17;;;;;;;58.17;3.07;;;21.40;1.00;;;;;;5074133;28;20458;-71
2021/07/17 11:13:07;;;;;;;57.97;3.63;;;21.30;1.00;;;;;;5073954;28;20479;-69
2021/07/17 11:15:48;;;;;;;59.40;3.90;;;21.20;1.00;;;;;;5074215;28;20467;-70
2021/07/17 11:18:40;;;;;;;58.00;2.83;;;21.10;1.00;;;;;;5074064;28;20447;-70
2021/07/17 11:21:21;;;;;;;58.87;4.00;;;21.10;1.00;;;;;;5063632;28;20452;-70
2021/07/17 11:23:48;;;;;;;58.47;3.00;;;21.20;1.00;;;;;;5073488;28;20440;-69
2021/07/17 11:26:20;;;;;;;59.33;3.50;;;21.20;1.00;;;;;;5074072;28;20894;-70
2021/07/17 11:29:07;;;;;;;58.10;2.80;;;21.20;1.00;;;;;;5073820;28;20445;-70
2021/07/17 11:31:55;;;;;;;58.20;3.07;;;21.10;1.00;;;;;;5073584;28;20507;-70
2021/07/17 11:34:47;;;;;;;58.40;3.20;;;21.10;1.00;;;;;;5073829;28;20834;-70
2021/07/17 11:37:29;;;;;;;57.97;3.13;;;21.00;1.00;;;;;;5073700;28;20988;-70
2021/07/17 11:40:01;;;;;;;58.60;3.17;;;20.90;1.00;;;;;;5073746;28;21018;-70
2021/07/17 11:42:28;;;;;;;59.37;3.30;;;20.80;1.00;;;;;;5073485;28;20444;-70
2021/07/17 11:44:58;;;;;;;58.77;3.43;;;20.70;1.00;;;;;;5073645;28;20472;-70
2021/07/17 11:47:30;;;;;;;58.70;3.10;;;20.70;1.00;;;;;;5073435;28;20848;-71
2021/07/17 11:49:59;;;;;;;58.40;3.27;;;20.60;1.00;;;;;;5070800;28;20455;-71
2021/07/17 11:52:28;;;;;;;59.07;3.63;;;20.60;1.00;;;;;;5072701;28;20482;-71
2021/07/17 11:54:58;;;;;;;58.97;3.53;;;20.60;1.00;;;;;;5073446;28;20488;-71
2021/07/17 11:57:29;;;;;;;58.80;3.47;;;20.50;1.00;;;;;;5073335;28;20448;-71
2021/07/17 12:00:17;;;;;;;57.87;2.60;;;20.40;1.00;;;;;;5072570;28;20450;-71
2021/07/17 12:02:45;;;;;;;58.23;2.90;;;20.40;1.00;;;;;;5072917;28;20455;-71
2021/07/17 12:05:15;;;;;;;58.27;2.83;;;20.40;1.00;;;;;;5073066;28;20474;-71
2021/07/17 12:07:44;;;;;;;59.10;4.17;;;20.40;1.00;;;;;;5073208;28;20439;-71
2021/07/17 12:10:12;;;;;;;58.53;2.97;;;20.40;1.00;;;;;;5073073;28;20899;-70
2021/07/17 12:12:40;;;;;;;58.70;3.33;;;20.60;1.00;;;;;;5072342;28;20999;-70
2021/07/17 12:15:21;;;;;;;58.90;3.93;;;20.60;1.00;;;;;;5071462;28;20483;-70
2021/07/17 12:17:55;;;;;;;59.27;3.80;;;20.70;1.00;;;;;;5057594;28;20464;-70
2021/07/17 12:20:24;;;;;;;59.03;3.60;;;20.80;1.00;;;;;;5052807;28;20448;-70
2021/07/17 12:22:54;;;;;;;58.67;3.30;;;20.90;1.00;;;;;;5052397;28;20446;-70
2021/07/17 12:25:23;;;;;;;58.50;3.13;;;20.90;1.00;;;;;;5052958;28;20555;-70
2021/07/17 12:27:57;;;;;;;58.93;3.60;;;21.00;1.00;;;;;;5053090;28;20479;-70
2021/07/17 12:30:27;;;;;;;58.50;3.30;;;21.20;1.00;;;;;;5052760;28;20452;-70
2021/07/17 12:33:10;;;;;;;58.60;3.50;;;21.20;1.00;;;;;;5052338;28;20483;-70
2021/07/17 12:35:37;;;;;;;62.10;5.50;;;21.10;1.00;;;;;;5052733;28;20467;-70
2021/07/17 12:38:14;;;;;;;58.70;3.17;;;21.00;1.00;;;;;;5052425;28;20452;-70
2021/07/17 12:40:52;;;;;;;58.90;3.80;;;20.90;1.00;;;;;;5052573;28;20451;-70
2021/07/17 12:43:23;;;;;;;61.60;3.50;;;20.90;1.00;;;;;;5052238;28;20472;-70
2021/07/17 12:45:59;;;;;;;58.23;2.90;;;21.00;1.00;;;;;;5059727;28;20481;-70
2021/07/17 12:48:26;;;;;;;59.07;3.47;;;21.20;1.00;;;;;;5059092;28;20540;-70
2021/07/17 12:51:07;;;;;;;61.93;4.57;;;21.30;1.00;;;;;;5052406;28;20483;-70